createdAt,value
2018-05-14T00:01:12.644Z,19.45
2018-05-14T00:03:41.557Z,19.39
2018-05-14T00:06:10.304Z,19.33
2018-05-14T00:08:39.039Z,19.52
2018-05-14T00:11:08.591Z,19.42
2018-05-14T00:13:37.377Z,18.96
2018-05-14T00:16:06.147Z,18.79
2018-05-14T00:18:35.136Z,18.57
2018-05-14T00:21:04.250Z,18.70
2018-05-14T00:23:33.801Z,18.91
2018-05-14T00:26:03.457Z,19.19
2018-05-14T00:28:32.227Z,19.25
2018-05-14T00:31:01.059Z,19.26
2018-05-14T00:33:29.825Z,19.19
2018-05-14T00:35:58.665Z,19.08
2018-05-14T00:38:27.461Z,19.12
2018-05-14T00:40:56.244Z,18.92
2018-05-14T00:43:24.987Z,18.67
2018-05-14T00:45:53.816Z,18.64
2018-05-14T00:48:22.632Z,18.64
2018-05-14T00:50:51.588Z,18.71
2018-05-14T00:53:20.399Z,18.77
2018-05-14T00:55:49.135Z,18.86
2018-05-14T00:58:17.917Z,19.16
2018-05-14T01:00:46.688Z,19.42
2018-05-14T01:03:15.480Z,19.08
2018-05-14T01:05:44.281Z,18.67
2018-05-14T01:08:13.056Z,18.79
2018-05-14T01:10:42.130Z,19.00
2018-05-14T01:13:12.800Z,18.99
2018-05-14T01:15:42.280Z,18.89
2018-05-14T01:18:12.262Z,18.89
2018-05-14T01:20:42.068Z,18.99
2018-05-14T01:23:10.804Z,19.12
2018-05-14T01:25:39.585Z,19.27
2018-05-14T01:28:09.186Z,19.16
2018-05-14T01:30:38.606Z,19.03
2018-05-14T01:33:07.467Z,18.92
2018-05-14T01:35:36.289Z,18.96
2018-05-14T01:38:04.969Z,18.86
2018-05-14T01:40:33.955Z,18.65
2018-05-14T01:43:02.705Z,18.53
2018-05-14T01:45:31.449Z,18.63
2018-05-14T01:48:00.288Z,18.89
2018-05-14T01:50:29.056Z,19.00
2018-05-14T01:52:58.610Z,19.03
2018-05-14T01:55:27.388Z,19.47
2018-05-14T01:57:56.280Z,19.38
2018-05-14T02:00:25.135Z,19.31
2018-05-14T02:02:53.931Z,19.30
2018-05-14T02:05:22.702Z,19.31
2018-05-14T02:07:51.512Z,19.26
2018-05-14T02:10:20.277Z,19.20
2018-05-14T02:12:49.067Z,19.03
2018-05-14T02:15:17.876Z,19.25
2018-05-14T02:17:46.735Z,18.96
2018-05-14T02:20:15.530Z,18.65
2018-05-14T02:22:44.494Z,18.42
2018-05-14T02:25:13.311Z,18.61
2018-05-14T02:27:42.721Z,18.64
2018-05-14T02:30:12.613Z,18.71
2018-05-14T02:32:43.255Z,18.69
2018-05-14T02:35:12.790Z,18.56
2018-05-14T02:37:42.607Z,18.55
2018-05-14T02:40:11.913Z,18.65
2018-05-14T02:42:40.655Z,18.74
2018-05-14T02:45:09.456Z,18.70
2018-05-14T02:47:39.008Z,18.68
2018-05-14T02:50:07.815Z,18.76
2018-05-14T02:52:36.917Z,18.73
2018-05-14T02:55:05.715Z,18.64
2018-05-14T02:57:35.311Z,18.86
2018-05-14T03:00:04.078Z,19.10
2018-05-14T03:02:32.920Z,19.14
2018-05-14T03:05:01.834Z,19.01
2018-05-14T03:07:30.617Z,19.17
2018-05-14T03:10:00.099Z,19.17
2018-05-14T03:12:29.648Z,19.13
2018-05-14T03:14:58.417Z,19.20
2018-05-14T03:17:27.196Z,19.16
2018-05-14T03:19:55.990Z,19.18
2018-05-14T03:22:24.825Z,19.19
2018-05-14T03:24:54.390Z,19.14
2018-05-14T03:27:23.350Z,19.27
2018-05-14T03:29:52.101Z,19.07
2018-05-14T03:32:20.869Z,19.06
2018-05-14T03:34:49.647Z,18.78
2018-05-14T03:37:18.405Z,19.00
2018-05-14T03:39:47.158Z,19.22
2018-05-14T03:42:15.930Z,19.46
2018-05-14T03:44:45.385Z,19.28
2018-05-14T03:47:15.185Z,19.28
2018-05-14T03:49:44.708Z,19.42
2018-05-14T03:52:13.778Z,19.30
2018-05-14T03:54:43.289Z,19.31
2018-05-14T03:57:14.011Z,19.46
2018-05-14T03:59:54.973Z,19.44
2018-05-14T04:02:36.621Z,19.36
2018-05-14T04:05:14.965Z,19.31
2018-05-14T04:07:43.767Z,19.34
2018-05-14T04:10:13.374Z,19.45
2018-05-14T04:12:42.133Z,19.42
2018-05-14T04:15:10.911Z,19.30
2018-05-14T04:17:39.805Z,19.21
2018-05-14T04:20:08.579Z,19.32
2018-05-14T04:22:37.387Z,19.47
2018-05-14T04:25:06.107Z,19.57
2018-05-14T04:27:34.888Z,19.61
2018-05-14T04:30:03.649Z,19.64
2018-05-14T04:32:32.416Z,19.59
2018-05-14T04:35:01.207Z,19.67
2018-05-14T04:37:30.391Z,19.56
2018-05-14T04:39:59.937Z,19.54
2018-05-14T04:42:29.476Z,19.51
2018-05-14T04:44:58.242Z,19.47
2018-05-14T04:47:27.478Z,19.44
2018-05-14T04:49:57.028Z,19.52
2018-05-14T04:52:25.792Z,19.75
2018-05-14T04:54:54.559Z,19.98
2018-05-14T04:57:24.111Z,20.08
2018-05-14T04:59:52.888Z,20.28
2018-05-14T05:02:21.650Z,20.51
2018-05-14T05:04:51.202Z,20.65
2018-05-14T05:07:19.985Z,20.63
2018-05-14T05:09:48.751Z,20.64
2018-05-14T05:12:17.653Z,20.51
2018-05-14T05:14:46.410Z,20.30
2018-05-14T05:17:15.176Z,20.26
2018-05-14T05:19:43.966Z,20.21
2018-05-14T05:22:13.868Z,20.31
2018-05-14T05:24:42.641Z,20.32
2018-05-14T05:27:11.419Z,20.24
2018-05-14T05:29:40.239Z,20.03
2018-05-14T05:32:09.018Z,20.21
2018-05-14T05:34:37.883Z,20.30
2018-05-14T05:37:06.641Z,20.31
2018-05-14T05:39:35.451Z,20.33
2018-05-14T05:42:04.351Z,20.32
2018-05-14T05:44:33.397Z,20.35
2018-05-14T05:47:02.128Z,20.63
2018-05-14T05:49:31.022Z,20.18
2018-05-14T05:51:59.815Z,19.81
2018-05-14T05:54:28.564Z,19.96
2018-05-14T05:56:58.189Z,20.13
2018-05-14T05:59:26.962Z,20.28
2018-05-14T06:01:55.757Z,20.61
2018-05-14T06:04:24.535Z,20.68
2018-05-14T06:06:53.272Z,20.60
2018-05-14T06:09:22.060Z,20.56
2018-05-14T06:11:51.572Z,20.49
2018-05-14T06:14:20.367Z,20.78
2018-05-14T06:16:49.133Z,20.86
2018-05-14T06:19:18.058Z,20.83
2018-05-14T06:21:46.781Z,21.11
2018-05-14T06:24:15.546Z,20.93
2018-05-14T06:26:44.387Z,21.17
2018-05-14T06:29:14.986Z,21.06
2018-05-14T06:31:44.433Z,20.88
2018-05-14T06:34:13.209Z,20.94
2018-05-14T06:36:42.736Z,21.10
2018-05-14T06:39:11.495Z,21.33
2018-05-14T06:41:40.225Z,21.45
2018-05-14T06:44:09.020Z,21.43
2018-05-14T06:46:37.877Z,21.16
2018-05-14T06:49:07.457Z,21.24
2018-05-14T06:51:36.293Z,21.29
2018-05-14T06:54:05.110Z,21.08
2018-05-14T06:56:33.877Z,20.93
2018-05-14T06:59:02.690Z,20.99
2018-05-14T07:01:31.504Z,20.71
2018-05-14T07:04:00.262Z,20.59
2018-05-14T07:06:28.993Z,20.41
2018-05-14T07:08:57.841Z,20.44
2018-05-14T07:11:26.706Z,20.15
2018-05-14T07:13:55.469Z,20.28
2018-05-14T07:16:25.066Z,20.29
2018-05-14T07:18:53.850Z,20.48
2018-05-14T07:21:22.669Z,20.47
2018-05-14T07:23:52.204Z,20.14
2018-05-14T07:26:20.999Z,20.17
2018-05-14T07:28:49.777Z,20.10
2018-05-14T07:31:18.662Z,20.04
2018-05-14T07:33:47.410Z,20.05
2018-05-14T07:36:16.196Z,20.15
2018-05-14T07:38:45.042Z,20.59
2018-05-14T07:41:14.864Z,20.80
2018-05-14T07:43:44.774Z,20.61
2018-05-14T07:46:13.560Z,20.38
2018-05-14T07:48:42.348Z,20.11
2018-05-14T07:51:11.121Z,20.24
2018-05-14T07:53:39.983Z,19.96
2018-05-14T07:56:09.016Z,19.89
2018-05-14T07:58:37.801Z,19.95
2018-05-14T08:01:06.541Z,19.72
2018-05-14T08:03:35.333Z,19.55
2018-05-14T08:06:04.177Z,19.54
2018-05-14T08:08:32.948Z,19.83
2018-05-14T08:11:02.725Z,19.90
2018-05-14T08:13:31.461Z,20.12
2018-05-14T08:16:00.234Z,19.76
2018-05-14T08:18:28.975Z,19.65
2018-05-14T08:20:58.426Z,19.48
2018-05-14T08:23:27.436Z,19.37
2018-05-14T08:25:56.900Z,18.92
2018-05-14T08:28:26.869Z,18.78
2018-05-14T08:30:56.306Z,19.05
2018-05-14T08:33:26.768Z,18.94
2018-05-14T08:35:55.896Z,19.07
2018-05-14T08:38:26.045Z,19.29
2018-05-14T08:40:55.444Z,19.02
2018-05-14T08:43:25.714Z,19.16
2018-05-14T08:45:54.704Z,19.53
2018-05-14T08:48:24.504Z,19.66
2018-05-14T08:50:54.850Z,19.28
2018-05-14T08:53:24.157Z,18.89
2018-05-14T08:55:53.139Z,18.83
2018-05-14T08:58:22.930Z,18.60
2018-05-14T09:00:52.018Z,18.50
2018-05-14T09:03:20.772Z,18.37
2018-05-14T09:05:50.477Z,18.33
2018-05-14T09:08:20.176Z,18.35
2018-05-14T09:10:49.166Z,18.55
2018-05-14T09:13:18.481Z,18.60
2018-05-14T09:15:47.252Z,18.86
2018-05-14T09:18:16.019Z,18.94
2018-05-14T09:20:45.603Z,19.30
2018-05-14T09:23:15.351Z,19.71
2018-05-14T09:25:44.145Z,19.94
2018-05-14T09:28:12.880Z,19.48
2018-05-14T09:30:41.645Z,19.22
2018-05-14T09:33:10.438Z,19.02
2018-05-14T09:35:39.209Z,19.53
2018-05-14T09:38:08.022Z,19.90
2018-05-14T09:40:36.843Z,20.44
2018-05-14T09:43:06.307Z,20.72
2018-05-14T09:45:36.146Z,20.61
2018-05-14T09:48:07.330Z,20.08
2018-05-14T09:50:36.196Z,19.79
2018-05-14T09:53:04.998Z,19.58
2018-05-14T09:55:33.774Z,19.84
2018-05-14T09:58:02.570Z,20.06
2018-05-14T10:00:31.293Z,20.12
2018-05-14T10:03:00.176Z,20.12
2018-05-14T10:05:29.962Z,20.22
2018-05-14T10:07:59.319Z,19.82
2018-05-14T10:10:28.081Z,19.64
2018-05-14T10:12:56.944Z,19.75
2018-05-14T10:15:26.519Z,19.86
2018-05-14T10:17:55.338Z,19.52
2018-05-14T10:20:24.097Z,19.68
2018-05-14T10:22:53.618Z,20.17
2018-05-14T10:25:22.400Z,20.04
2018-05-14T10:27:51.917Z,20.37
2018-05-14T10:30:20.681Z,20.95
2018-05-14T10:32:50.197Z,21.15
2018-05-14T10:35:18.950Z,21.03
2018-05-14T10:37:47.729Z,21.04
2018-05-14T10:40:16.492Z,20.43
2018-05-14T10:42:47.392Z,19.59
2018-05-14T10:45:16.214Z,19.84
2018-05-14T10:47:45.398Z,19.93
2018-05-14T10:50:14.926Z,19.97
2018-05-14T10:52:43.857Z,20.49
2018-05-14T10:55:12.538Z,21.10
2018-05-14T10:57:41.426Z,20.42
2018-05-14T11:00:10.939Z,19.49
2018-05-14T11:02:39.669Z,19.67
2018-05-14T11:05:09.740Z,19.54
2018-05-14T11:07:39.228Z,19.12
2018-05-14T11:10:08.768Z,18.93
2018-05-14T11:12:37.551Z,18.84
2018-05-14T11:15:06.301Z,18.95
2018-05-14T11:17:35.984Z,19.08
2018-05-14T11:20:04.847Z,19.07
2018-05-14T11:22:33.647Z,18.87
2018-05-14T11:25:02.884Z,18.89
2018-05-14T11:27:31.722Z,19.47
2018-05-14T11:30:00.416Z,19.98
2018-05-14T11:32:29.152Z,19.93
2018-05-14T11:34:57.952Z,20.02
2018-05-14T11:37:27.468Z,19.96
2018-05-14T11:39:56.360Z,19.77
2018-05-14T11:42:25.980Z,18.85
2018-05-14T11:44:55.719Z,19.10
2018-05-14T11:47:24.471Z,19.39
2018-05-14T11:49:53.251Z,19.85
2018-05-14T11:52:22.000Z,20.38
2018-05-14T11:54:50.802Z,19.96
2018-05-14T11:57:19.584Z,19.53
2018-05-14T11:59:48.416Z,19.41
2018-05-14T12:02:17.993Z,19.15
2018-05-14T12:04:46.881Z,19.31
2018-05-14T12:07:16.695Z,18.99
2018-05-14T12:09:45.493Z,18.57
2018-05-14T12:12:14.510Z,18.65
2018-05-14T12:14:43.325Z,18.44
2018-05-14T12:17:12.114Z,18.41
2018-05-14T12:19:40.946Z,18.18
2018-05-14T12:22:09.678Z,18.40
2018-05-14T12:24:38.477Z,18.42
2018-05-14T12:27:07.288Z,18.42
2018-05-14T12:29:36.094Z,18.70
2018-05-14T12:32:05.853Z,18.96
2018-05-14T12:34:34.645Z,19.15
2018-05-14T12:37:04.716Z,19.19
2018-05-14T12:39:33.486Z,19.15
2018-05-14T12:42:02.216Z,19.18
2018-05-14T12:44:31.799Z,19.68
2018-05-14T12:47:00.551Z,19.84
2018-05-14T12:49:29.331Z,20.29
2018-05-14T12:51:58.174Z,20.53
2018-05-14T12:54:26.862Z,20.60
2018-05-14T12:56:55.631Z,20.23
2018-05-14T12:59:24.598Z,20.36
2018-05-14T13:01:53.416Z,20.47
2018-05-14T13:04:22.318Z,20.76
2018-05-14T13:06:51.304Z,20.80
2018-05-14T13:09:22.118Z,20.60
2018-05-14T13:11:51.450Z,20.38
2018-05-14T13:14:20.174Z,20.02
2018-05-14T13:16:49.373Z,20.32
2018-05-14T13:19:18.208Z,20.64
2018-05-14T13:21:47.244Z,20.74
2018-05-14T13:24:17.206Z,20.58
2018-05-14T13:26:45.991Z,20.01
2018-05-14T13:29:15.282Z,19.97
2018-05-14T13:31:44.793Z,19.68
2018-05-14T13:34:13.613Z,19.67
2018-05-14T13:36:42.407Z,20.14
2018-05-14T13:39:12.017Z,20.40
2018-05-14T13:41:41.054Z,20.63
2018-05-14T13:44:09.963Z,20.65
2018-05-14T13:46:39.545Z,20.51
2018-05-14T13:49:08.344Z,20.54
2018-05-14T13:51:37.111Z,20.77
2018-05-14T13:54:06.344Z,20.54
2018-05-14T13:56:35.964Z,20.37
2018-05-14T13:59:05.636Z,20.38
2018-05-14T14:01:36.303Z,20.30
2018-05-14T14:04:05.208Z,20.36
2018-05-14T14:06:35.094Z,20.53
2018-05-14T14:09:03.945Z,20.69
2018-05-14T14:11:33.537Z,20.98
2018-05-14T14:14:02.230Z,20.89
2018-05-14T14:16:30.995Z,20.67
2018-05-14T14:18:59.806Z,20.49
2018-05-14T14:21:30.860Z,20.30
2018-05-14T14:23:59.972Z,20.14
2018-05-14T14:26:29.832Z,20.38
2018-05-14T14:28:58.601Z,20.14
2018-05-14T14:31:27.390Z,20.31
2018-05-14T14:33:56.134Z,20.62
2018-05-14T14:36:24.966Z,20.91
2018-05-14T14:38:53.728Z,20.37
2018-05-14T14:41:23.312Z,20.44
2018-05-14T14:43:52.737Z,20.54
2018-05-14T14:46:22.302Z,20.69
2018-05-14T14:48:52.076Z,20.59
2018-05-14T14:51:20.949Z,21.00
2018-05-14T14:53:49.851Z,21.05
2018-05-14T14:56:18.964Z,21.38
2018-05-14T14:58:48.278Z,21.43
2018-05-14T15:01:17.680Z,21.36
2018-05-14T15:03:46.505Z,21.24
2018-05-14T15:06:15.372Z,20.85
2018-05-14T15:08:45.690Z,20.58
2018-05-14T15:11:20.100Z,20.80
2018-05-14T15:13:48.899Z,21.22
2018-05-14T15:16:17.741Z,21.22
2018-05-14T15:18:51.553Z,21.24
2018-05-14T15:21:23.812Z,21.09
2018-05-14T15:23:52.684Z,21.42
2018-05-14T15:26:21.531Z,21.39
2018-05-14T15:31:32.869Z,21.54
2018-05-14T15:34:02.461Z,21.23
2018-05-14T15:36:31.335Z,20.99
2018-05-14T15:39:01.675Z,20.85
2018-05-14T15:41:35.547Z,21.25
2018-05-14T15:44:06.396Z,21.42
2018-05-14T15:46:35.886Z,21.29
2018-05-14T15:49:06.957Z,21.08
2018-05-14T15:51:42.420Z,21.05
2018-05-14T15:54:11.193Z,21.30
2018-05-14T15:56:40.016Z,21.22
2018-05-14T15:59:12.087Z,21.06
2018-05-14T16:01:42.080Z,21.06
2018-05-14T16:04:12.232Z,21.29
2018-05-14T16:06:41.069Z,21.25
2018-05-14T16:09:09.897Z,21.15
2018-05-14T16:11:41.815Z,20.89
2018-05-14T16:14:10.540Z,20.85
2018-05-14T16:16:39.285Z,20.68
2018-05-14T16:19:11.821Z,20.57
2018-05-14T16:21:41.659Z,20.94
2018-05-14T16:24:10.485Z,20.80
2018-05-14T16:26:39.621Z,20.50
2018-05-14T16:29:15.785Z,20.39
2018-05-14T16:31:46.787Z,20.59
2018-05-14T16:34:15.567Z,20.48
2018-05-14T16:36:45.176Z,20.42
2018-05-14T16:39:17.001Z,20.48
2018-05-14T16:41:46.538Z,20.58
2018-05-14T16:44:15.933Z,20.55
2018-05-14T16:46:45.457Z,20.39
2018-05-14T16:49:14.213Z,20.24
2018-05-14T16:51:43.021Z,20.21
2018-05-14T16:54:12.540Z,20.36
2018-05-14T16:56:41.264Z,20.35
2018-05-14T16:59:10.100Z,20.29
2018-05-14T17:01:38.976Z,20.10
2018-05-14T17:04:07.795Z,20.03
2018-05-14T17:06:36.961Z,20.12
2018-05-14T17:09:05.720Z,20.17
2018-05-14T17:11:34.477Z,20.28
2018-05-14T17:14:03.753Z,20.35
2018-05-14T17:16:32.513Z,20.42
2018-05-14T17:19:01.270Z,20.54
2018-05-14T17:21:30.135Z,20.51
2018-05-14T17:23:58.894Z,20.47
2018-05-14T17:26:27.687Z,20.36
2018-05-14T17:28:56.420Z,20.30
2018-05-14T17:31:25.218Z,20.34
2018-05-14T17:33:54.003Z,20.31
2018-05-14T17:36:23.672Z,20.28
2018-05-14T17:38:52.404Z,20.22
2018-05-14T17:41:21.187Z,20.53
2018-05-14T17:43:50.912Z,20.48
2018-05-14T17:46:19.903Z,20.52
2018-05-14T17:48:48.802Z,20.51
2018-05-14T17:51:19.390Z,20.45
2018-05-14T17:53:49.082Z,20.31
2018-05-14T17:56:18.705Z,20.12
2018-05-14T17:58:47.508Z,20.28
2018-05-14T18:01:16.409Z,20.17
2018-05-14T18:03:45.665Z,20.12
2018-05-14T18:06:15.066Z,19.85
2018-05-14T18:08:43.845Z,19.70
2018-05-14T18:11:12.699Z,19.93
2018-05-14T18:13:41.914Z,19.94
2018-05-14T18:16:12.381Z,19.91
2018-05-14T18:18:41.810Z,20.08
2018-05-14T18:21:12.226Z,19.89
2018-05-14T18:23:47.067Z,19.80
2018-05-14T18:26:17.768Z,20.00
2018-05-14T18:28:49.083Z,20.04
2018-05-14T18:31:25.471Z,19.96
2018-05-14T18:33:54.260Z,20.04
2018-05-14T18:36:23.089Z,20.22
2018-05-14T18:38:52.749Z,20.21
2018-05-14T18:41:21.536Z,20.25
2018-05-14T18:43:50.472Z,20.09
2018-05-14T18:46:19.248Z,20.25
2018-05-14T18:48:49.109Z,20.15
2018-05-14T18:51:18.698Z,20.10
2018-05-14T18:53:47.572Z,20.22
2018-05-14T18:56:16.369Z,20.00
2018-05-14T18:58:45.185Z,19.94
2018-05-14T19:01:15.669Z,19.92
2018-05-14T19:03:45.943Z,19.72
2018-05-14T19:06:14.794Z,19.77
2018-05-14T19:08:43.579Z,19.87
2018-05-14T19:11:17.864Z,19.92
2018-05-14T19:13:47.220Z,19.75
2018-05-14T19:16:21.450Z,19.92
2018-05-14T19:18:50.304Z,19.93
2018-05-14T19:21:19.256Z,19.77
2018-05-14T19:23:53.922Z,19.63
2018-05-14T19:26:22.660Z,19.84
2018-05-14T19:28:57.716Z,19.87
2018-05-14T19:31:26.454Z,19.59
2018-05-14T19:34:00.826Z,19.49
2018-05-14T19:36:29.611Z,19.62
2018-05-14T19:38:59.085Z,19.66
2018-05-14T19:41:27.933Z,19.59
2018-05-14T19:43:56.762Z,19.63
2018-05-14T19:46:26.298Z,19.50
2018-05-14T19:48:55.837Z,19.63
2018-05-14T19:51:25.584Z,19.66
2018-05-14T19:53:54.323Z,19.86
2018-05-14T19:56:23.139Z,19.66
2018-05-14T19:58:51.873Z,19.67
2018-05-14T20:01:20.625Z,19.74
2018-05-14T20:03:49.745Z,19.92
2018-05-14T20:06:20.883Z,20.04
2018-05-14T20:08:50.424Z,19.82
2018-05-14T20:11:19.703Z,19.79
2018-05-14T20:13:51.020Z,19.61
2018-05-14T20:16:19.796Z,19.57
2018-05-14T20:18:49.620Z,19.63
2018-05-14T20:21:18.392Z,19.48
2018-05-14T20:23:47.142Z,19.52
2018-05-14T20:26:15.894Z,19.49
2018-05-14T20:28:44.806Z,19.50
2018-05-14T20:31:14.364Z,19.48
2018-05-14T20:33:43.189Z,19.58
2018-05-14T20:36:12.750Z,19.53
2018-05-14T20:38:42.423Z,19.46
2018-05-14T20:41:11.934Z,19.50
2018-05-14T20:43:41.887Z,19.48
2018-05-14T20:46:10.628Z,19.43
2018-05-14T20:48:39.402Z,19.35
2018-05-14T20:51:08.907Z,19.14
2018-05-14T20:53:37.638Z,19.14
2018-05-14T20:56:06.440Z,19.22
2018-05-14T20:58:35.225Z,19.43
2018-05-14T21:01:04.914Z,19.27
2018-05-14T21:03:33.695Z,19.30
2018-05-14T21:06:03.243Z,19.61
2018-05-14T21:08:32.564Z,19.30
2018-05-14T21:11:01.290Z,19.48
2018-05-14T21:13:30.828Z,19.49
2018-05-14T21:15:59.626Z,19.29
2018-05-14T21:18:28.698Z,19.05
2018-05-14T21:20:57.486Z,18.96
2018-05-14T21:23:26.220Z,19.05
2018-05-14T21:25:58.163Z,19.40
2018-05-14T21:28:27.674Z,19.56
2018-05-14T21:30:56.439Z,19.22
2018-05-14T21:33:25.178Z,19.12
2018-05-14T21:35:54.075Z,19.10
2018-05-14T21:38:22.853Z,19.08
2018-05-14T21:40:51.688Z,18.87
2018-05-14T21:43:21.399Z,18.61
2018-05-14T21:45:51.809Z,18.98
2018-05-14T21:48:21.521Z,18.93
2018-05-14T21:50:52.162Z,18.87
2018-05-14T21:53:21.557Z,18.89
2018-05-14T21:55:52.237Z,19.03
2018-05-14T21:58:21.549Z,18.74
2018-05-14T22:00:51.380Z,18.90
2018-05-14T22:03:20.155Z,18.87
2018-05-14T22:05:50.704Z,18.93
2018-05-14T22:08:19.621Z,18.95
2018-05-14T22:10:49.115Z,18.51
2018-05-14T22:13:17.914Z,18.62
2018-05-14T22:15:46.684Z,18.88
2018-05-14T22:18:15.492Z,18.66
2018-05-14T22:20:44.211Z,18.60
2018-05-14T22:23:12.974Z,18.49
2018-05-14T22:25:41.760Z,18.62
2018-05-14T22:28:11.296Z,18.58
2018-05-14T22:30:40.179Z,18.18
2018-05-14T22:33:09.192Z,18.31
2018-05-14T22:35:37.927Z,18.42
2018-05-14T22:38:06.749Z,17.82
2018-05-14T22:40:35.601Z,17.97
2018-05-14T22:43:05.278Z,18.32
2018-05-14T22:45:34.709Z,18.38
2018-05-14T22:48:03.563Z,18.21
2018-05-14T22:50:32.343Z,17.95
2018-05-14T22:53:01.757Z,18.38
2018-05-14T22:55:30.572Z,18.21
2018-05-14T22:57:59.319Z,18.28
2018-05-14T23:00:28.078Z,18.50
2018-05-14T23:02:57.188Z,18.51
2018-05-14T23:05:25.960Z,18.73
2018-05-14T23:07:54.732Z,18.65
2018-05-14T23:10:23.581Z,18.48
2018-05-14T23:12:53.985Z,18.73
2018-05-14T23:15:22.759Z,18.44
2018-05-14T23:17:52.133Z,18.20
2018-05-14T23:20:20.963Z,18.12
2018-05-14T23:22:49.733Z,18.28
2018-05-14T23:25:18.522Z,18.57
2018-05-14T23:27:48.044Z,17.94
2018-05-14T23:30:16.774Z,17.65
2018-05-14T23:32:45.558Z,18.17
2018-05-14T23:35:14.858Z,18.14
2018-05-14T23:37:43.648Z,18.10
2018-05-14T23:40:12.405Z,18.10
2018-05-14T23:42:41.161Z,17.85
2018-05-14T23:45:09.905Z,18.10
2018-05-14T23:47:39.869Z,18.10
2018-05-14T23:50:09.901Z,18.32
2018-05-14T23:52:39.425Z,18.27
2018-05-14T23:55:08.156Z,18.18
2018-05-14T23:57:36.899Z,18.24
